sensor_id;sensor_type;location;lat;lon;timestamp;P1;durP1;ratioP1;P2;durP2;ratioP2
69053;SDS011;56125;52.242;4.756;2022-12-18T00:00:24;16.00;;;8.00;;
69053;SDS011;56125;52.242;4.756;2022-12-18T00:05:25;16.10;;;7.65;;
69053;SDS011;56125;52.242;4.756;2022-12-18T00:10:26;17.13;;;7.47;;
69053;SDS011;56125;52.242;4.756;2022-12-18T00:15:28;18.27;;;8.27;;
69053;SDS011;56125;52.242;4.756;2022-12-18T00:20:29;15.40;;;7.80;;
69053;SDS011;56125;52.242;4.756;2022-12-18T00:25:32;16.45;;;7.72;;
69053;SDS011;56125;52.242;4.756;2022-12-18T00:30:34;14.43;;;7.73;;
69053;SDS011;56125;52.242;4.756;2022-12-18T00:35:35;16.17;;;6.80;;
69053;SDS011;56125;52.242;4.756;2022-12-18T00:40:36;17.40;;;7.93;;
69053;SDS011;56125;52.242;4.756;2022-12-18T00:45:37;16.38;;;7.95;;
69053;SDS011;56125;52.242;4.756;2022-12-18T00:50:38;15.13;;;7.53;;
69053;SDS011;56125;52.242;4.756;2022-12-18T00:55:40;18.05;;;7.78;;
69053;SDS011;56125;52.242;4.756;2022-12-18T01:00:42;15.80;;;7.63;;
69053;SDS011;56125;52.242;4.756;2022-12-18T01:05:43;13.82;;;6.72;;
69053;SDS011;56125;52.242;4.756;2022-12-18T01:10:44;18.47;;;7.93;;
69053;SDS011;56125;52.242;4.756;2022-12-18T01:15:49;14.43;;;7.30;;
69053;SDS011;56125;52.242;4.756;2022-12-18T01:20:50;15.70;;;7.43;;
69053;SDS011;56125;52.242;4.756;2022-12-18T01:25:51;13.15;;;6.90;;
69053;SDS011;56125;52.242;4.756;2022-12-18T01:30:52;14.40;;;7.97;;
69053;SDS011;56125;52.242;4.756;2022-12-18T01:35:53;16.17;;;7.45;;
69053;SDS011;56125;52.242;4.756;2022-12-18T01:40:58;17.53;;;7.43;;
69053;SDS011;56125;52.242;4.756;2022-12-18T01:45:59;14.98;;;7.40;;
69053;SDS011;56125;52.242;4.756;2022-12-18T01:51:00;14.30;;;7.10;;
69053;SDS011;56125;52.242;4.756;2022-12-18T01:56:02;12.85;;;6.65;;
69053;SDS011;56125;52.242;4.756;2022-12-18T02:01:03;13.87;;;6.90;;
69053;SDS011;56125;52.242;4.756;2022-12-18T02:06:25;15.52;;;7.03;;
69053;SDS011;56125;52.242;4.756;2022-12-18T02:11:52;13.63;;;6.47;;
69053;SDS011;56125;52.242;4.756;2022-12-18T02:17:11;13.43;;;6.70;;
69053;SDS011;56125;52.242;4.756;2022-12-18T02:22:29;14.43;;;7.13;;
69053;SDS011;56125;52.242;4.756;2022-12-18T02:27:44;14.35;;;6.57;;
69053;SDS011;56125;52.242;4.756;2022-12-18T02:32:50;11.47;;;6.47;;
69053;SDS011;56125;52.242;4.756;2022-12-18T02:37:53;13.25;;;7.07;;
69053;SDS011;56125;52.242;4.756;2022-12-18T02:42:55;12.60;;;6.53;;
69053;SDS011;56125;52.242;4.756;2022-12-18T02:48:02;13.52;;;6.47;;
69053;SDS011;56125;52.242;4.756;2022-12-18T03:03:29;11.13;;;6.40;;
69053;SDS011;56125;52.242;4.756;2022-12-18T03:08:42;12.85;;;6.60;;
69053;SDS011;56125;52.242;4.756;2022-12-18T03:18:52;12.77;;;6.47;;
69053;SDS011;56125;52.242;4.756;2022-12-18T03:24:01;12.23;;;6.40;;
69053;SDS011;56125;52.242;4.756;2022-12-18T03:29:07;12.35;;;5.95;;
69053;SDS011;56125;52.242;4.756;2022-12-18T03:34:16;9.60;;;5.97;;
69053;SDS011;56125;52.242;4.756;2022-12-18T03:39:24;12.40;;;6.63;;
69053;SDS011;56125;52.242;4.756;2022-12-18T03:55:09;12.13;;;6.30;;
69053;SDS011;56125;52.242;4.756;2022-12-18T04:00:13;9.88;;;5.68;;
69053;SDS011;56125;52.242;4.756;2022-12-18T04:05:16;11.87;;;6.17;;
69053;SDS011;56125;52.242;4.756;2022-12-18T04:10:19;12.68;;;6.00;;
69053;SDS011;56125;52.242;4.756;2022-12-18T04:15:20;10.57;;;6.07;;
69053;SDS011;56125;52.242;4.756;2022-12-18T04:20:21;12.05;;;6.20;;
69053;SDS011;56125;52.242;4.756;2022-12-18T04:25:22;12.60;;;5.97;;
69053;SDS011;56125;52.242;4.756;2022-12-18T04:30:23;10.73;;;6.10;;
69053;SDS011;56125;52.242;4.756;2022-12-18T04:35:24;11.40;;;6.40;;
69053;SDS011;56125;52.242;4.756;2022-12-18T04:40:25;12.48;;;6.53;;
69053;SDS011;56125;52.242;4.756;2022-12-18T04:45:26;12.97;;;7.20;;
69053;SDS011;56125;52.242;4.756;2022-12-18T04:50:27;10.95;;;6.43;;
69053;SDS011;56125;52.242;4.756;2022-12-18T04:55:29;14.73;;;6.70;;
69053;SDS011;56125;52.242;4.756;2022-12-18T05:00:30;10.65;;;6.63;;
69053;SDS011;56125;52.242;4.756;2022-12-18T05:05:31;10.63;;;6.10;;
69053;SDS011;56125;52.242;4.756;2022-12-18T05:10:35;11.13;;;5.78;;
69053;SDS011;56125;52.242;4.756;2022-12-18T05:15:36;11.10;;;6.27;;
69053;SDS011;56125;52.242;4.756;2022-12-18T05:20:37;11.75;;;6.40;;
69053;SDS011;56125;52.242;4.756;2022-12-18T05:25:38;11.53;;;6.37;;
69053;SDS011;56125;52.242;4.756;2022-12-18T05:30:39;11.25;;;6.15;;
69053;SDS011;56125;52.242;4.756;2022-12-18T05:35:40;11.33;;;6.57;;
69053;SDS011;56125;52.242;4.756;2022-12-18T05:40:42;11.52;;;6.18;;
69053;SDS011;56125;52.242;4.756;2022-12-18T05:45:43;9.70;;;5.73;;
69053;SDS011;56125;52.242;4.756;2022-12-18T05:50:45;10.85;;;6.28;;
69053;SDS011;56125;52.242;4.756;2022-12-18T05:55:48;10.43;;;6.37;;
69053;SDS011;56125;52.242;4.756;2022-12-18T06:00:49;12.05;;;7.00;;
69053;SDS011;56125;52.242;4.756;2022-12-18T06:05:50;11.87;;;6.57;;
69053;SDS011;56125;52.242;4.756;2022-12-18T06:10:51;10.90;;;6.20;;
69053;SDS011;56125;52.242;4.756;2022-12-18T06:15:55;10.33;;;5.87;;
69053;SDS011;56125;52.242;4.756;2022-12-18T06:20:56;12.88;;;6.63;;
69053;SDS011;56125;52.242;4.756;2022-12-18T06:26:02;13.77;;;7.00;;
69053;SDS011;56125;52.242;4.756;2022-12-18T06:31:07;12.75;;;6.25;;
69053;SDS011;56125;52.242;4.756;2022-12-18T06:36:10;10.10;;;6.27;;
69053;SDS011;56125;52.242;4.756;2022-12-18T06:41:17;10.75;;;6.30;;
69053;SDS011;56125;52.242;4.756;2022-12-18T06:46:21;11.43;;;6.83;;
69053;SDS011;56125;52.242;4.756;2022-12-18T06:51:22;13.27;;;6.82;;
69053;SDS011;56125;52.242;4.756;2022-12-18T06:56:24;13.77;;;7.00;;
69053;SDS011;56125;52.242;4.756;2022-12-18T07:01:25;13.30;;;7.00;;
69053;SDS011;56125;52.242;4.756;2022-12-18T07:06:26;11.90;;;6.83;;
69053;SDS011;56125;52.242;4.756;2022-12-18T07:11:27;12.50;;;6.65;;
69053;SDS011;56125;52.242;4.756;2022-12-18T07:16:28;14.67;;;7.00;;
69053;SDS011;56125;52.242;4.756;2022-12-18T07:21:29;11.13;;;6.75;;
69053;SDS011;56125;52.242;4.756;2022-12-18T07:26:30;11.93;;;7.30;;
69053;SDS011;56125;52.242;4.756;2022-12-18T07:31:31;12.02;;;6.78;;
69053;SDS011;56125;52.242;4.756;2022-12-18T07:36:32;11.57;;;6.17;;
69053;SDS011;56125;52.242;4.756;2022-12-18T07:41:33;10.85;;;6.55;;
69053;SDS011;56125;52.242;4.756;2022-12-18T07:46:34;8.57;;;5.50;;
69053;SDS011;56125;52.242;4.756;2022-12-18T07:51:35;10.68;;;6.43;;
69053;SDS011;56125;52.242;4.756;2022-12-18T07:56:36;10.47;;;6.33;;
69053;SDS011;56125;52.242;4.756;2022-12-18T08:01:37;11.38;;;6.70;;
69053;SDS011;56125;52.242;4.756;2022-12-18T08:06:38;9.47;;;5.87;;
69053;SDS011;56125;52.242;4.756;2022-12-18T08:11:39;9.68;;;5.70;;
69053;SDS011;56125;52.242;4.756;2022-12-18T08:16:40;10.73;;;5.43;;
69053;SDS011;56125;52.242;4.756;2022-12-18T08:21:42;8.95;;;5.78;;
69053;SDS011;56125;52.242;4.756;2022-12-18T08:26:43;10.57;;;5.33;;
69053;SDS011;56125;52.242;4.756;2022-12-18T08:31:44;8.60;;;5.25;;
69053;SDS011;56125;52.242;4.756;2022-12-18T08:36:45;10.03;;;5.60;;
69053;SDS011;56125;52.242;4.756;2022-12-18T08:41:46;8.88;;;5.20;;
69053;SDS011;56125;52.242;4.756;2022-12-18T08:47:07;9.80;;;5.70;;
69053;SDS011;56125;52.242;4.756;2022-12-18T08:52:08;8.50;;;4.75;;
69053;SDS011;56125;52.242;4.756;2022-12-18T08:57:09;9.43;;;5.30;;
69053;SDS011;56125;52.242;4.756;2022-12-18T09:02:11;7.50;;;4.57;;
69053;SDS011;56125;52.242;4.756;2022-12-18T09:07:12;9.03;;;5.53;;
69053;SDS011;56125;52.242;4.756;2022-12-18T09:12:13;7.78;;;4.93;;
69053;SDS011;56125;52.242;4.756;2022-12-18T09:17:14;8.10;;;4.80;;
69053;SDS011;56125;52.242;4.756;2022-12-18T09:22:15;8.25;;;4.60;;
69053;SDS011;56125;52.242;4.756;2022-12-18T09:27:16;8.87;;;5.50;;
69053;SDS011;56125;52.242;4.756;2022-12-18T09:32:17;10.05;;;4.90;;
69053;SDS011;56125;52.242;4.756;2022-12-18T09:37:18;7.17;;;5.23;;
69053;SDS011;56125;52.242;4.756;2022-12-18T09:42:22;8.15;;;5.03;;
69053;SDS011;56125;52.242;4.756;2022-12-18T09:47:36;6.70;;;4.93;;
69053;SDS011;56125;52.242;4.756;2022-12-18T09:52:46;7.72;;;5.43;;
69053;SDS011;56125;52.242;4.756;2022-12-18T09:57:53;6.60;;;3.97;;
69053;SDS011;56125;52.242;4.756;2022-12-18T10:02:59;6.85;;;4.47;;
69053;SDS011;56125;52.242;4.756;2022-12-18T10:13:28;6.85;;;4.30;;
69053;SDS011;56125;52.242;4.756;2022-12-18T10:18:59;8.13;;;4.73;;
69053;SDS011;56125;52.242;4.756;2022-12-18T10:24:23;7.55;;;4.43;;
69053;SDS011;56125;52.242;4.756;2022-12-18T10:29:36;8.27;;;4.70;;
69053;SDS011;56125;52.242;4.756;2022-12-18T10:34:37;6.70;;;3.97;;
69053;SDS011;56125;52.242;4.756;2022-12-18T10:39:38;7.47;;;4.13;;
69053;SDS011;56125;52.242;4.756;2022-12-18T10:44:40;6.45;;;4.50;;
69053;SDS011;56125;52.242;4.756;2022-12-18T10:49:51;8.80;;;4.80;;
69053;SDS011;56125;52.242;4.756;2022-12-18T10:54:58;7.57;;;4.05;;
69053;SDS011;56125;52.242;4.756;2022-12-18T11:05:30;7.00;;;4.13;;
69053;SDS011;56125;52.242;4.756;2022-12-18T11:10:33;5.47;;;3.83;;
69053;SDS011;56125;52.242;4.756;2022-12-18T11:15:37;6.97;;;4.28;;
69053;SDS011;56125;52.242;4.756;2022-12-18T11:20:41;7.20;;;4.30;;
69053;SDS011;56125;52.242;4.756;2022-12-18T11:25:42;7.47;;;4.47;;
69053;SDS011;56125;52.242;4.756;2022-12-18T11:31:17;7.20;;;4.37;;
69053;SDS011;56125;52.242;4.756;2022-12-18T11:36:23;6.25;;;3.75;;
69053;SDS011;56125;52.242;4.756;2022-12-18T11:41:46;6.77;;;4.13;;
69053;SDS011;56125;52.242;4.756;2022-12-18T11:47:19;6.40;;;3.70;;
69053;SDS011;56125;52.242;4.756;2022-12-18T11:52:36;6.93;;;4.50;;
69053;SDS011;56125;52.242;4.756;2022-12-18T11:58:24;6.20;;;4.50;;
69053;SDS011;56125;52.242;4.756;2022-12-18T12:08:40;7.53;;;4.30;;
69053;SDS011;56125;52.242;4.756;2022-12-18T12:19:20;5.75;;;3.95;;
69053;SDS011;56125;52.242;4.756;2022-12-18T12:24:59;7.93;;;4.45;;
69053;SDS011;56125;52.242;4.756;2022-12-18T12:35:20;6.30;;;3.90;;
69053;SDS011;56125;52.242;4.756;2022-12-18T12:40:24;5.90;;;4.07;;
69053;SDS011;56125;52.242;4.756;2022-12-18T12:45:30;5.75;;;4.15;;
69053;SDS011;56125;52.242;4.756;2022-12-18T12:50:33;4.70;;;3.70;;
69053;SDS011;56125;52.242;4.756;2022-12-18T12:55:35;5.25;;;3.60;;
69053;SDS011;56125;52.242;4.756;2022-12-18T13:00:40;13.33;;;3.60;;
69053;SDS011;56125;52.242;4.756;2022-12-18T13:05:54;5.57;;;3.40;;
69053;SDS011;56125;52.242;4.756;2022-12-18T13:10:59;9.50;;;3.30;;
69053;SDS011;56125;52.242;4.756;2022-12-18T13:16:19;4.40;;;2.80;;
69053;SDS011;56125;52.242;4.756;2022-12-18T13:21:28;5.45;;;3.22;;
69053;SDS011;56125;52.242;4.756;2022-12-18T13:26:34;4.27;;;3.37;;
69053;SDS011;56125;52.242;4.756;2022-12-18T13:36:42;3.80;;;2.90;;
69053;SDS011;56125;52.242;4.756;2022-12-18T13:41:44;3.22;;;2.80;;
69053;SDS011;56125;52.242;4.756;2022-12-18T13:46:47;4.03;;;2.83;;
69053;SDS011;56125;52.242;4.756;2022-12-18T13:51:50;4.25;;;2.65;;
69053;SDS011;56125;52.242;4.756;2022-12-18T13:56:53;5.23;;;2.80;;
69053;SDS011;56125;52.242;4.756;2022-12-18T14:01:55;4.97;;;2.83;;
69053;SDS011;56125;52.242;4.756;2022-12-18T14:07:01;3.97;;;2.53;;
69053;SDS011;56125;52.242;4.756;2022-12-18T14:12:05;4.18;;;2.70;;
69053;SDS011;56125;52.242;4.756;2022-12-18T14:17:26;3.80;;;2.40;;
69053;SDS011;56125;52.242;4.756;2022-12-18T14:22:27;4.03;;;2.63;;
69053;SDS011;56125;52.242;4.756;2022-12-18T14:27:30;3.67;;;2.60;;
69053;SDS011;56125;52.242;4.756;2022-12-18T14:32:31;4.03;;;2.38;;
69053;SDS011;56125;52.242;4.756;2022-12-18T14:37:32;3.70;;;2.20;;
69053;SDS011;56125;52.242;4.756;2022-12-18T14:42:33;2.88;;;1.85;;
69053;SDS011;56125;52.242;4.756;2022-12-18T14:47:34;3.30;;;2.30;;
69053;SDS011;56125;52.242;4.756;2022-12-18T14:52:35;2.45;;;2.05;;
69053;SDS011;56125;52.242;4.756;2022-12-18T14:57:36;3.83;;;2.50;;
69053;SDS011;56125;52.242;4.756;2022-12-18T15:02:40;2.80;;;2.20;;
69053;SDS011;56125;52.242;4.756;2022-12-18T15:07:42;3.47;;;2.27;;
69053;SDS011;56125;52.242;4.756;2022-12-18T15:17:59;2.90;;;1.73;;
69053;SDS011;56125;52.242;4.756;2022-12-18T15:23:01;3.58;;;2.40;;
69053;SDS011;56125;52.242;4.756;2022-12-18T15:28:02;3.37;;;2.00;;
69053;SDS011;56125;52.242;4.756;2022-12-18T15:33:20;2.70;;;2.10;;
69053;SDS011;56125;52.242;4.756;2022-12-18T15:38:27;2.60;;;2.00;;
69053;SDS011;56125;52.242;4.756;2022-12-18T15:43:28;2.28;;;1.90;;
69053;SDS011;56125;52.242;4.756;2022-12-18T15:48:40;3.07;;;2.20;;
69053;SDS011;56125;52.242;4.756;2022-12-18T15:53:45;3.28;;;2.00;;
69053;SDS011;56125;52.242;4.756;2022-12-18T15:58:47;3.10;;;2.30;;
69053;SDS011;56125;52.242;4.756;2022-12-18T16:03:48;2.60;;;2.00;;
69053;SDS011;56125;52.242;4.756;2022-12-18T16:08:49;2.83;;;2.30;;
69053;SDS011;56125;52.242;4.756;2022-12-18T16:13:50;3.78;;;2.17;;
69053;SDS011;56125;52.242;4.756;2022-12-18T16:18:52;3.23;;;2.33;;
69053;SDS011;56125;52.242;4.756;2022-12-18T16:23:53;3.83;;;2.47;;
69053;SDS011;56125;52.242;4.756;2022-12-18T16:28:54;3.63;;;2.50;;
69053;SDS011;56125;52.242;4.756;2022-12-18T16:39:26;3.60;;;2.30;;
69053;SDS011;56125;52.242;4.756;2022-12-18T16:44:28;3.92;;;2.60;;
69053;SDS011;56125;52.242;4.756;2022-12-18T16:49:29;3.80;;;2.40;;
69053;SDS011;56125;52.242;4.756;2022-12-18T16:54:30;4.10;;;2.33;;
69053;SDS011;56125;52.242;4.756;2022-12-18T16:59:31;3.13;;;2.00;;
69053;SDS011;56125;52.242;4.756;2022-12-18T17:04:35;3.58;;;2.17;;
69053;SDS011;56125;52.242;4.756;2022-12-18T17:09:36;4.33;;;1.90;;
69053;SDS011;56125;52.242;4.756;2022-12-18T17:14:37;3.95;;;2.10;;
69053;SDS011;56125;52.242;4.756;2022-12-18T17:19:38;2.83;;;2.00;;
69053;SDS011;56125;52.242;4.756;2022-12-18T17:24:39;3.30;;;1.95;;
69053;SDS011;56125;52.242;4.756;2022-12-18T17:29:40;3.37;;;2.27;;
69053;SDS011;56125;52.242;4.756;2022-12-18T17:34:41;3.47;;;1.80;;
69053;SDS011;56125;52.242;4.756;2022-12-18T17:39:43;2.07;;;1.87;;
69053;SDS011;56125;52.242;4.756;2022-12-18T17:44:44;2.63;;;1.90;;
69053;SDS011;56125;52.242;4.756;2022-12-18T17:49:45;2.90;;;1.90;;
69053;SDS011;56125;52.242;4.756;2022-12-18T17:54:46;2.65;;;2.00;;
69053;SDS011;56125;52.242;4.756;2022-12-18T17:59:47;3.27;;;1.90;;
69053;SDS011;56125;52.242;4.756;2022-12-18T18:04:48;2.33;;;1.75;;
69053;SDS011;56125;52.242;4.756;2022-12-18T18:09:49;2.63;;;1.80;;
69053;SDS011;56125;52.242;4.756;2022-12-18T18:14:50;3.65;;;2.15;;
69053;SDS011;56125;52.242;4.756;2022-12-18T18:19:51;5.00;;;2.70;;
69053;SDS011;56125;52.242;4.756;2022-12-18T18:24:52;4.28;;;2.70;;
69053;SDS011;56125;52.242;4.756;2022-12-18T18:29:53;5.67;;;2.60;;
69053;SDS011;56125;52.242;4.756;2022-12-18T18:34:54;4.57;;;2.40;;
69053;SDS011;56125;52.242;4.756;2022-12-18T18:39:55;4.43;;;2.20;;
69053;SDS011;56125;52.242;4.756;2022-12-18T18:44:56;4.22;;;2.50;;
69053;SDS011;56125;52.242;4.756;2022-12-18T18:49:57;3.87;;;2.10;;
69053;SDS011;56125;52.242;4.756;2022-12-18T18:54:58;3.30;;;2.17;;
69053;SDS011;56125;52.242;4.756;2022-12-18T18:59:59;3.73;;;2.27;;
69053;SDS011;56125;52.242;4.756;2022-12-18T19:05:00;2.55;;;1.88;;
69053;SDS011;56125;52.242;4.756;2022-12-18T19:10:02;3.20;;;2.10;;
69053;SDS011;56125;52.242;4.756;2022-12-18T19:15:03;2.83;;;1.95;;
69053;SDS011;56125;52.242;4.756;2022-12-18T19:20:05;3.33;;;2.07;;
69053;SDS011;56125;52.242;4.756;2022-12-18T19:25:06;3.15;;;1.90;;
69053;SDS011;56125;52.242;4.756;2022-12-18T19:30:08;3.57;;;1.90;;
69053;SDS011;56125;52.242;4.756;2022-12-18T19:35:10;2.47;;;1.63;;
69053;SDS011;56125;52.242;4.756;2022-12-18T19:40:11;3.27;;;2.00;;
69053;SDS011;56125;52.242;4.756;2022-12-18T19:45:12;4.10;;;1.90;;
69053;SDS011;56125;52.242;4.756;2022-12-18T19:50:13;5.53;;;1.90;;
69053;SDS011;56125;52.242;4.756;2022-12-18T19:55:14;3.60;;;1.80;;
69053;SDS011;56125;52.242;4.756;2022-12-18T20:00:15;3.30;;;1.70;;
69053;SDS011;56125;52.242;4.756;2022-12-18T20:05:17;3.08;;;1.58;;
69053;SDS011;56125;52.242;4.756;2022-12-18T20:10:24;2.27;;;1.70;;
69053;SDS011;56125;52.242;4.756;2022-12-18T20:15:25;2.85;;;1.90;;
69053;SDS011;56125;52.242;4.756;2022-12-18T20:20:26;3.70;;;1.90;;
69053;SDS011;56125;52.242;4.756;2022-12-18T20:25:27;4.65;;;2.80;;
69053;SDS011;56125;52.242;4.756;2022-12-18T20:30:28;4.53;;;2.75;;
69053;SDS011;56125;52.242;4.756;2022-12-18T20:35:30;5.93;;;3.40;;
69053;SDS011;56125;52.242;4.756;2022-12-18T20:40:33;4.80;;;3.10;;
69053;SDS011;56125;52.242;4.756;2022-12-18T20:45:34;6.73;;;3.60;;
69053;SDS011;56125;52.242;4.756;2022-12-18T20:50:36;6.50;;;3.70;;
69053;SDS011;56125;52.242;4.756;2022-12-18T20:55:40;5.90;;;3.63;;
69053;SDS011;56125;52.242;4.756;2022-12-18T21:00:42;6.47;;;3.70;;
69053;SDS011;56125;52.242;4.756;2022-12-18T21:05:43;6.70;;;3.83;;
69053;SDS011;56125;52.242;4.756;2022-12-18T21:10:44;6.45;;;3.60;;
69053;SDS011;56125;52.242;4.756;2022-12-18T21:15:45;7.53;;;4.47;;
69053;SDS011;56125;52.242;4.756;2022-12-18T21:20:46;5.68;;;3.63;;
69053;SDS011;56125;52.242;4.756;2022-12-18T21:25:47;7.60;;;4.40;;
69053;SDS011;56125;52.242;4.756;2022-12-18T21:30:48;8.32;;;4.03;;
69053;SDS011;56125;52.242;4.756;2022-12-18T21:35:49;6.30;;;4.50;;
69053;SDS011;56125;52.242;4.756;2022-12-18T21:40:50;9.23;;;4.65;;
69053;SDS011;56125;52.242;4.756;2022-12-18T21:45:51;7.37;;;4.50;;
69053;SDS011;56125;52.242;4.756;2022-12-18T21:50:55;7.32;;;4.30;;
69053;SDS011;56125;52.242;4.756;2022-12-18T21:55:59;9.80;;;4.80;;
69053;SDS011;56125;52.242;4.756;2022-12-18T22:01:00;7.60;;;4.90;;
69053;SDS011;56125;52.242;4.756;2022-12-18T22:06:01;7.67;;;4.23;;
69053;SDS011;56125;52.242;4.756;2022-12-18T22:11:03;9.15;;;4.78;;
69053;SDS011;56125;52.242;4.756;2022-12-18T22:16:04;8.70;;;4.53;;
69053;SDS011;56125;52.242;4.756;2022-12-18T22:21:05;6.78;;;4.13;;
69053;SDS011;56125;52.242;4.756;2022-12-18T22:26:07;9.70;;;4.77;;
69053;SDS011;56125;52.242;4.756;2022-12-18T22:31:10;9.75;;;5.22;;
69053;SDS011;56125;52.242;4.756;2022-12-18T22:36:11;9.80;;;4.47;;
69053;SDS011;56125;52.242;4.756;2022-12-18T22:41:12;8.30;;;4.72;;
69053;SDS011;56125;52.242;4.756;2022-12-18T22:46:16;11.73;;;5.10;;
69053;SDS011;56125;52.242;4.756;2022-12-18T22:51:18;10.32;;;4.70;;
69053;SDS011;56125;52.242;4.756;2022-12-18T22:56:20;8.40;;;4.90;;
69053;SDS011;56125;52.242;4.756;2022-12-18T23:01:25;8.05;;;4.60;;
69053;SDS011;56125;52.242;4.756;2022-12-18T23:06:27;8.67;;;4.67;;
69053;SDS011;56125;52.242;4.756;2022-12-18T23:11:28;8.10;;;5.10;;
69053;SDS011;56125;52.242;4.756;2022-12-18T23:16:29;8.30;;;4.77;;
69053;SDS011;56125;52.242;4.756;2022-12-18T23:21:30;8.52;;;5.60;;
69053;SDS011;56125;52.242;4.756;2022-12-18T23:26:31;8.20;;;4.83;;
69053;SDS011;56125;52.242;4.756;2022-12-18T23:31:34;7.80;;;4.93;;
69053;SDS011;56125;52.242;4.756;2022-12-18T23:36:36;6.77;;;4.83;;
69053;SDS011;56125;52.242;4.756;2022-12-18T23:41:38;7.97;;;5.00;;
69053;SDS011;56125;52.242;4.756;2022-12-18T23:46:39;8.00;;;5.00;;
69053;SDS011;56125;52.242;4.756;2022-12-18T23:51:40;8.40;;;4.85;;
69053;SDS011;56125;52.242;4.756;2022-12-18T23:56:41;8.30;;;4.83;;
